Time;durP1;ratioP1;P1;durP2;ratioP2;P2;SDS_P1;SDS_P2;PMS_P1;PMS_P2;Temp;Humidity;BMP_temperature;BMP_pressure;BME280_temperature;BME280_humidity;BME280_pressure;Samples;Min_cycle;Max_cycle;Signal;HPM_P1;HPM_P2
2023/05/18 00:01:11;;;;;;;1.30;1.30;;;19.80;80.10;;;;;;5044752;28;20076;-79
2023/05/18 00:03:36;;;;;;;1.25;1.20;;;19.80;80.10;;;;;;5053451;28;20044;-79
2023/05/18 00:06:03;;;;;;;0.90;0.90;;;19.80;80.10;;;;;;5055619;28;20051;-79
2023/05/18 00:08:37;;;;;;;1.52;1.42;;;19.80;80.10;;;;;;5055449;28;20090;-78
2023/05/18 00:11:04;;;;;;;1.50;1.50;;;19.80;80.10;;;;;;5029657;28;20037;-79
2023/05/18 00:13:29;;;;;;;1.20;1.20;;;19.70;80.10;;;;;;5031181;28;20042;-78
2023/05/18 00:15:55;;;;;;;1.13;1.02;;;19.70;81.00;;;;;;5053237;28;20047;-79
2023/05/18 00:18:22;;;;;;;1.20;1.20;;;19.80;80.20;;;;;;5054750;28;20048;-78
2023/05/18 00:20:49;;;;;;;1.63;1.52;;;19.70;80.10;;;;;;5039022;28;20053;-79
2023/05/18 00:23:15;;;;;;;1.20;1.20;;;19.70;80.20;;;;;;5036593;28;20080;-79
2023/05/18 00:25:41;;;;;;;1.30;1.30;;;19.70;80.10;;;;;;5056959;28;20068;-78
2023/05/18 00:28:07;;;;;;;1.42;1.33;;;19.80;80.20;;;;;;5057271;28;20086;-79
2023/05/18 00:30:32;;;;;;;1.27;1.27;;;19.70;80.20;;;;;;5060639;28;20082;-78
2023/05/18 00:32:58;;;;;;;1.02;1.02;;;19.70;81.00;;;;;;5053593;28;20045;-78
2023/05/18 00:35:23;;;;;;;1.20;1.20;;;19.70;80.20;;;;;;5054813;28;20045;-79
2023/05/18 00:37:49;;;;;;;1.55;1.45;;;19.70;80.20;;;;;;5035914;28;20045;-78
2023/05/18 00:40:15;;;;;;;1.40;1.30;;;19.70;80.20;;;;;;5053708;28;20128;-79
2023/05/18 00:42:41;;;;;;;1.08;1.08;;;19.70;80.20;;;;;;5046273;28;20583;-79
2023/05/18 00:45:07;;;;;;;1.38;1.33;;;19.70;80.30;;;;;;5050661;28;20047;-79
2023/05/18 00:47:32;;;;;;;1.17;1.10;;;19.70;80.20;;;;;;5054332;28;20120;-78
2023/05/18 00:49:58;;;;;;;1.27;1.27;;;19.70;80.20;;;;;;5056230;28;20202;-78
2023/05/18 00:52:23;;;;;;;1.23;1.20;;;19.70;80.20;;;;;;5054872;28;20045;-79
2023/05/18 00:54:49;;;;;;;1.10;1.10;;;19.70;80.30;;;;;;5051673;28;20035;-78
2023/05/18 00:57:15;;;;;;;1.33;1.33;;;19.70;80.20;;;;;;5030983;28;20044;-79
2023/05/18 00:59:40;;;;;;;1.60;1.50;;;19.70;80.30;;;;;;5041286;28;20029;-78
2023/05/18 01:02:08;;;;;;;1.48;1.38;;;19.70;80.20;;;;;;5030035;28;20037;-79
2023/05/18 01:04:33;;;;;;;1.50;1.40;;;19.70;80.30;;;;;;5038080;28;20095;-78
2023/05/18 01:07:05;;;;;;;1.30;1.30;;;19.70;80.30;;;;;;5056663;28;20056;-79
2023/05/18 01:09:30;;;;;;;1.65;1.55;;;19.70;80.30;;;;;;5055359;28;20395;-78
2023/05/18 01:12:04;;;;;;;1.27;1.20;;;19.70;80.30;;;;;;5054227;28;20094;-79
2023/05/18 01:14:36;;;;;;;;;;;19.60;80.30;;;;;;5047187;28;20048;-79
2023/05/18 01:17:05;;;;;;;1.67;1.58;;;19.60;80.30;;;;;;5055041;28;20003;-79
2023/05/18 01:20:05;;;;;;;1.17;1.10;;;19.60;80.20;;;;;;5054636;28;20055;-77
2023/05/18 01:22:37;;;;;;;1.40;1.30;;;19.60;80.20;;;;;;5050896;28;20052;-79
2023/05/18 01:25:20;;;;;;;1.40;1.30;;;19.60;80.20;;;;;;5054308;28;20037;-79
2023/05/18 01:27:46;;;;;;;1.42;1.33;;;19.60;80.20;;;;;;5033233;28;20446;-79
2023/05/18 01:30:14;;;;;;;1.30;1.30;;;19.60;80.30;;;;;;5019483;28;20536;-79
2023/05/18 01:32:45;;;;;;;1.23;1.23;;;19.60;80.20;;;;;;5054105;28;20052;-79
2023/05/18 01:35:10;;;;;;;1.45;1.30;;;19.60;80.10;;;;;;5052082;28;20049;-79
2023/05/18 01:37:36;;;;;;;1.27;1.20;;;19.60;80.20;;;;;;5056077;28;20502;-79
2023/05/18 01:40:04;;;;;;;1.38;1.27;;;19.60;80.20;;;;;;5056704;28;20135;-79
2023/05/18 01:42:29;;;;;;;1.45;1.38;;;19.60;80.20;;;;;;5032659;28;20045;-79
2023/05/18 01:45:01;;;;;;;1.50;1.40;;;19.60;80.20;;;;;;5051507;28;20048;-79
2023/05/18 01:47:27;;;;;;;1.40;1.40;;;19.60;80.20;;;;;;5037015;28;20472;-79
2023/05/18 01:50:01;;;;;;;1.65;1.50;;;19.60;80.20;;;;;;5037428;28;20060;-80
2023/05/18 01:52:43;;;;;;;1.35;1.35;;;19.60;80.10;;;;;;5049850;28;20094;-79
2023/05/18 01:55:09;;;;;;;1.13;1.10;;;19.60;80.20;;;;;;5025873;28;20052;-79
2023/05/18 01:57:35;;;;;;;1.40;1.30;;;19.60;80.20;;;;;;5035185;28;20059;-78
2023/05/18 02:00:02;;;;;;;1.35;1.30;;;19.50;80.10;;;;;;5029107;28;20519;-79
2023/05/18 02:02:28;;;;;;;1.20;1.20;;;19.50;80.10;;;;;;5049197;28;20059;-79
2023/05/18 02:04:54;;;;;;;1.20;1.10;;;19.50;80.00;;;;;;5051571;28;20044;-79
2023/05/18 02:07:19;;;;;;;1.17;1.08;;;19.60;80.10;;;;;;5040491;28;20047;-79
2023/05/18 02:09:45;;;;;;;1.20;1.20;;;19.50;80.10;;;;;;5047941;28;20057;-78
2023/05/18 02:12:11;;;;;;;1.15;1.15;;;19.60;80.00;;;;;;5042374;28;20064;-78
2023/05/18 02:14:36;;;;;;;1.38;1.30;;;19.50;80.00;;;;;;5039319;28;20482;-78
2023/05/18 02:17:02;;;;;;;1.50;1.40;;;19.50;79.90;;;;;;5054354;28;20049;-78
2023/05/18 02:19:29;;;;;;;1.48;1.45;;;19.50;80.00;;;;;;5044156;28;20124;-79
2023/05/18 02:21:56;;;;;;;1.17;1.17;;;19.50;80.10;;;;;;5053537;28;20081;-79
2023/05/18 02:24:22;;;;;;;1.55;1.45;;;19.50;79.90;;;;;;5047070;28;20052;-79
2023/05/18 02:26:47;;;;;;;1.08;1.08;;;19.50;79.90;;;;;;5055879;28;20387;-79
2023/05/18 02:29:13;;;;;;;1.17;1.17;;;19.50;80.00;;;;;;5054608;28;20510;-79
2023/05/18 02:31:39;;;;;;;1.10;1.10;;;19.50;80.80;;;;;;5058112;28;20067;-78
2023/05/18 02:34:04;;;;;;;1.10;1.10;;;19.50;79.90;;;;;;5058351;28;20521;-79
2023/05/18 02:36:35;;;;;;;1.65;1.55;;;19.50;79.90;;;;;;5046969;28;20426;-79
2023/05/18 02:39:03;;;;;;;1.02;1.02;;;19.50;79.90;;;;;;5052014;28;20041;-78
2023/05/18 02:41:28;;;;;;;1.42;1.30;;;19.50;80.00;;;;;;5049928;28;20102;-79
2023/05/18 02:43:54;;;;;;;1.30;1.20;;;19.50;80.00;;;;;;5047457;28;20045;-79
2023/05/18 02:46:20;;;;;;;1.42;1.33;;;19.50;79.90;;;;;;5054961;28;20289;-80
2023/05/18 02:48:45;;;;;;;1.35;1.35;;;19.50;80.00;;;;;;5051198;28;20514;-79
2023/05/18 02:51:11;;;;;;;1.33;1.23;;;19.50;80.00;;;;;;5054399;28;20044;-79
2023/05/18 02:53:36;;;;;;;1.42;1.33;;;19.50;79.90;;;;;;5034024;28;20047;-78
2023/05/18 02:56:02;;;;;;;1.60;1.30;;;19.50;79.90;;;;;;5053494;28;20048;-80
2023/05/18 02:58:28;;;;;;;1.50;1.40;;;19.50;79.90;;;;;;5051756;28;20048;-80
2023/05/18 03:00:58;;;;;;;1.23;1.23;;;19.40;79.90;;;;;;5050805;28;20049;-80
2023/05/18 03:03:24;;;;;;;1.13;1.13;;;19.40;79.90;;;;;;5047081;28;20037;-79
2023/05/18 03:05:53;;;;;;;1.30;1.30;;;19.40;79.80;;;;;;5046435;28;20056;-80
2023/05/18 03:08:25;;;;;;;1.50;1.40;;;19.40;79.90;;;;;;5057023;28;20047;-80
2023/05/18 03:10:51;;;;;;;1.10;1.10;;;19.40;79.80;;;;;;5047450;28;20040;-79
2023/05/18 03:13:16;;;;;;;1.30;1.30;;;19.40;79.70;;;;;;5048514;28;20045;-80
2023/05/18 03:15:44;;;;;;;1.50;1.40;;;19.40;79.60;;;;;;5058174;28;20033;-79
2023/05/18 03:18:10;;;;;;;1.60;1.50;;;19.40;79.60;;;;;;5057070;28;20048;-80
2023/05/18 03:20:36;;;;;;;1.55;1.45;;;19.40;79.70;;;;;;5056700;28;20052;-79
2023/05/18 03:23:02;;;;;;;1.33;1.23;;;19.40;79.60;;;;;;5051984;28;20387;-79
2023/05/18 03:25:29;;;;;;;1.52;1.33;;;19.40;79.60;;;;;;5056042;28;20040;-79
2023/05/18 03:27:54;;;;;;;1.58;1.38;;;19.40;79.60;;;;;;5040355;28;20060;-78
2023/05/18 03:30:20;;;;;;;1.60;1.50;;;19.40;79.60;;;;;;5023171;28;20037;-79
2023/05/18 03:32:46;;;;;;;1.10;1.10;;;19.40;79.60;;;;;;5058373;28;20060;-79
2023/05/18 03:35:12;;;;;;;1.33;1.23;;;19.40;79.50;;;;;;5039309;28;20049;-78
2023/05/18 03:37:38;;;;;;;1.40;1.40;;;19.40;79.60;;;;;;5059191;28;20502;-79
2023/05/18 03:40:14;;;;;;;1.27;1.20;;;19.40;79.60;;;;;;5057723;28;20033;-78
2023/05/18 03:42:40;;;;;;;1.05;1.05;;;19.40;79.60;;;;;;5049820;28;20039;-78
2023/05/18 03:45:06;;;;;;;1.50;1.40;;;19.40;79.50;;;;;;5051973;28;20406;-79
2023/05/18 03:47:32;;;;;;;1.20;1.20;;;19.40;79.60;;;;;;5060306;28;20180;-79
2023/05/18 03:49:58;;;;;;;1.40;1.40;;;19.40;79.50;;;;;;5057189;28;20136;-79
2023/05/18 03:52:23;;;;;;;1.70;1.60;;;19.40;79.60;;;;;;5037767;28;20126;-79
2023/05/18 03:54:49;;;;;;;1.65;1.55;;;19.40;79.50;;;;;;5054756;28;20049;-79
2023/05/18 03:57:15;;;;;;;1.10;1.10;;;19.40;79.50;;;;;;5054919;28;20041;-80
2023/05/18 03:59:42;;;;;;;1.40;1.30;;;19.40;79.50;;;;;;5050228;28;20179;-78
2023/05/18 04:02:07;;;;;;;1.13;1.13;;;19.40;79.60;;;;;;5051760;28;20128;-79
2023/05/18 04:04:33;;;;;;;1.13;1.13;;;19.40;79.60;;;;;;5059852;28;20123;-80
2023/05/18 04:07:01;;;;;;;1.52;1.42;;;19.40;79.50;;;;;;5057504;28;20091;-80
2023/05/18 04:09:27;;;;;;;1.48;1.40;;;19.30;79.50;;;;;;5055285;28;20123;-80
2023/05/18 04:11:52;;;;;;;1.25;1.23;;;19.40;79.50;;;;;;5027601;28;20179;-80
2023/05/18 04:14:19;;;;;;;1.80;1.70;;;19.40;79.50;;;;;;5052210;28;20123;-80
2023/05/18 04:16:45;;;;;;;1.25;1.23;;;19.30;79.50;;;;;;5057988;28;20628;-80
2023/05/18 04:19:12;;;;;;;1.50;1.45;;;19.40;79.50;;;;;;5061715;28;20167;-80
2023/05/18 04:21:42;;;;;;;1.30;1.30;;;19.40;79.50;;;;;;5056325;28;20036;-80
2023/05/18 04:24:08;;;;;;;1.30;1.30;;;19.40;79.40;;;;;;5049061;28;20068;-80
2023/05/18 04:26:35;;;;;;;1.80;1.25;;;19.30;79.40;;;;;;5055139;28;20067;-81
2023/05/18 04:29:01;;;;;;;1.23;1.23;;;19.30;79.40;;;;;;5068057;28;20144;-80
2023/05/18 04:31:28;;;;;;;1.42;1.33;;;19.30;79.40;;;;;;5054190;28;20040;-80
2023/05/18 04:33:54;;;;;;;1.20;1.20;;;19.30;79.40;;;;;;5061486;28;20056;-81
2023/05/18 04:36:20;;;;;;;1.25;1.15;;;19.30;79.40;;;;;;5049055;28;20089;-82
2023/05/18 04:38:45;;;;;;;1.33;1.30;;;19.30;79.40;;;;;;5050021;28;20048;-81
2023/05/18 04:41:11;;;;;;;1.33;1.33;;;19.30;79.40;;;;;;5058409;28;20071;-81
2023/05/18 04:43:37;;;;;;;1.52;1.52;;;19.30;79.40;;;;;;5050524;28;20048;-82
2023/05/18 04:46:02;;;;;;;1.50;1.40;;;19.30;79.30;;;;;;5059696;28;20131;-81
2023/05/18 04:48:29;;;;;;;1.38;1.38;;;19.30;79.40;;;;;;5054295;28;20081;-81
2023/05/18 04:50:55;;;;;;;1.17;1.17;;;19.30;79.30;;;;;;5051101;28;20056;-81
2023/05/18 04:53:21;;;;;;;1.35;1.25;;;19.30;79.30;;;;;;5055390;28;20037;-80
2023/05/18 04:55:49;;;;;;;1.55;1.45;;;19.30;79.30;;;;;;5053472;28;20422;-79
2023/05/18 04:58:15;;;;;;;1.52;1.50;;;19.30;79.30;;;;;;5061519;28;20030;-80
2023/05/18 05:00:41;;;;;;;1.60;1.50;;;19.30;80.10;;;;;;5054292;28;20063;-80
2023/05/18 05:03:06;;;;;;;1.50;1.40;;;19.30;79.30;;;;;;5048543;28;20120;-80
2023/05/18 05:05:32;;;;;;;1.20;1.20;;;19.30;79.30;;;;;;5051062;28;20509;-79
2023/05/18 05:07:58;;;;;;;1.50;1.40;;;19.30;79.40;;;;;;5054103;28;20098;-79
2023/05/18 05:10:23;;;;;;;1.60;1.50;;;19.30;80.10;;;;;;5055974;28;20502;-79
2023/05/18 05:12:49;;;;;;;1.40;1.30;;;19.30;79.30;;;;;;5049581;28;20052;-80
2023/05/18 05:15:15;;;;;;;1.48;1.38;;;19.30;79.30;;;;;;5052469;28;20114;-80
2023/05/18 05:17:41;;;;;;;1.40;1.30;;;19.30;79.30;;;;;;5036042;28;20510;-80
2023/05/18 05:20:07;;;;;;;1.10;1.10;;;19.30;79.30;;;;;;5053487;28;20043;-80
2023/05/18 05:22:32;;;;;;;1.52;1.42;;;19.40;79.30;;;;;;5047940;28;20399;-80
2023/05/18 05:24:58;;;;;;;1.27;1.17;;;19.30;79.10;;;;;;5057870;28;20044;-80
2023/05/18 05:27:25;;;;;;;1.40;1.30;;;19.40;78.90;;;;;;5043414;28;20522;-80
2023/05/18 05:29:50;;;;;;;1.58;1.48;;;19.30;79.00;;;;;;5053633;28;20052;-82
2023/05/18 05:32:16;;;;;;;1.50;1.40;;;19.30;79.00;;;;;;5054634;28;20052;-80
2023/05/18 05:34:46;;;;;;;1.33;1.23;;;19.30;79.00;;;;;;5055475;28;20037;-80
2023/05/18 05:37:12;;;;;;;1.15;1.15;;;19.30;78.90;;;;;;5052367;28;20052;-81
2023/05/18 05:39:38;;;;;;;1.20;1.20;;;19.30;79.10;;;;;;5053301;28;20509;-81
2023/05/18 05:42:06;;;;;;;1.30;1.30;;;19.30;79.00;;;;;;5044435;28;20045;-81
2023/05/18 05:44:31;;;;;;;1.30;1.20;;;19.20;79.00;;;;;;5046291;28;20112;-80
2023/05/18 05:46:57;;;;;;;1.27;1.27;;;19.20;79.00;;;;;;5046516;28;20056;-81
2023/05/18 05:49:22;;;;;;;1.48;1.38;;;19.30;79.00;;;;;;5049073;28;20063;-82
2023/05/18 05:51:48;;;;;;;1.10;1.10;;;19.30;79.00;;;;;;5053975;28;20068;-79
2023/05/18 05:54:13;;;;;;;1.50;1.40;;;19.30;79.00;;;;;;5038314;28;20036;-80
2023/05/18 05:56:39;;;;;;;2.13;1.23;;;19.30;79.00;;;;;;5045683;28;20052;-80
2023/05/18 05:59:05;;;;;;;1.30;1.20;;;19.20;78.90;;;;;;5045594;28;20494;-81
2023/05/18 06:01:31;;;;;;;1.20;1.20;;;19.20;78.80;;;;;;5052856;28;20047;-81
2023/05/18 06:03:57;;;;;;;1.38;1.27;;;19.30;79.70;;;;;;5043987;28;20125;-80
2023/05/18 06:06:22;;;;;;;1.25;1.25;;;19.30;78.80;;;;;;5047596;28;20132;-81
2023/05/18 06:08:48;;;;;;;1.08;1.08;;;19.30;78.90;;;;;;5044984;28;20037;-81
2023/05/18 06:11:13;;;;;;;1.35;1.25;;;19.30;78.90;;;;;;5045911;28;20121;-84
2023/05/18 06:13:39;;;;;;;1.00;1.00;;;19.30;78.80;;;;;;5041880;28;20037;-80
2023/05/18 06:16:04;;;;;;;1.10;1.10;;;19.30;78.90;;;;;;5052305;28;20033;-80
2023/05/18 06:18:30;;;;;;;1.20;1.20;;;19.30;79.00;;;;;;5047141;28;20559;-80
2023/05/18 06:20:56;;;;;;;1.27;1.17;;;19.40;78.80;;;;;;5045097;28;20518;-80
2023/05/18 06:23:22;;;;;;;1.08;1.08;;;19.30;78.70;;;;;;5027876;28;20037;-80
2023/05/18 06:25:48;;;;;;;1.40;1.30;;;19.30;78.70;;;;;;5049996;28;20045;-81
2023/05/18 06:28:14;;;;;;;1.20;1.10;;;19.30;78.70;;;;;;5045073;28;21274;-80
2023/05/18 06:30:40;;;;;;;1.10;1.10;;;19.30;78.80;;;;;;5050441;28;20036;-81
2023/05/18 06:33:06;;;;;;;1.17;1.17;;;19.30;78.90;;;;;;5028649;28;20029;-81
2023/05/18 06:35:32;;;;;;;1.30;1.20;;;19.30;78.90;;;;;;5041964;28;20036;-81
2023/05/18 06:37:58;;;;;;;1.20;1.20;;;19.30;78.90;;;;;;5048476;28;20068;-80
2023/05/18 06:40:23;;;;;;;1.20;1.20;;;19.30;79.00;;;;;;5048680;28;20063;-80
2023/05/18 06:42:49;;;;;;;1.10;1.10;;;19.30;79.00;;;;;;5047586;28;20521;-80
2023/05/18 06:45:14;;;;;;;1.42;1.35;;;19.30;79.10;;;;;;5027510;28;20106;-80
2023/05/18 06:47:41;;;;;;;1.45;1.35;;;19.30;78.70;;;;;;5026367;28;20410;-80
2023/05/18 06:50:07;;;;;;;1.13;1.13;;;19.30;79.00;;;;;;5056435;28;20064;-81
2023/05/18 06:52:33;;;;;;;1.42;1.35;;;19.30;78.90;;;;;;5051016;28;20045;-80
2023/05/18 06:55:00;;;;;;;1.05;1.05;;;19.30;78.90;;;;;;5048116;28;20032;-79
2023/05/18 06:57:25;;;;;;;1.13;1.13;;;19.30;79.00;;;;;;5036088;28;20048;-79
2023/05/18 06:59:52;;;;;;;0.90;0.90;;;19.30;79.00;;;;;;5052035;28;20037;-81
2023/05/18 07:02:20;;;;;;;1.25;1.15;;;19.30;79.00;;;;;;5045270;28;20578;-80
2023/05/18 07:04:46;;;;;;;1.40;1.30;;;19.40;78.90;;;;;;5045290;28;20120;-80
2023/05/18 07:07:11;;;;;;;1.40;1.30;;;19.40;78.80;;;;;;5047571;28;20044;-80
2023/05/18 07:09:37;;;;;;;1.00;1.00;;;19.40;78.70;;;;;;5044096;28;20029;-80
2023/05/18 07:12:03;;;;;;;0.93;0.93;;;19.40;78.60;;;;;;5044596;28;20057;-79
2023/05/18 07:14:29;;;;;;;1.30;1.20;;;19.50;78.50;;;;;;5047421;28;20052;-80
2023/05/18 07:16:54;;;;;;;1.48;1.40;;;19.50;78.30;;;;;;5046888;28;25103;-84
2023/05/18 07:19:20;;;;;;;1.20;1.20;;;19.50;78.50;;;;;;5040513;28;20033;-85
2023/05/18 07:21:46;;;;;;;1.23;1.23;;;19.50;78.20;;;;;;5035414;28;20044;-84
2023/05/18 07:24:11;;;;;;;1.48;1.38;;;19.50;78.00;;;;;;5047125;28;20348;-85
2023/05/18 07:26:37;;;;;;;1.63;1.52;;;19.50;77.90;;;;;;5043322;28;20041;-84
2023/05/18 07:29:02;;;;;;;1.67;1.58;;;19.50;78.20;;;;;;5049588;28;20046;-86
2023/05/18 07:31:28;;;;;;;1.23;1.20;;;19.50;78.70;;;;;;5056009;28;20192;-86
2023/05/18 07:33:53;;;;;;;1.63;1.52;;;19.50;78.40;;;;;;5046175;28;20139;-82
2023/05/18 07:36:19;;;;;;;2.08;1.90;;;19.40;78.20;;;;;;5051282;28;20510;-89
2023/05/18 07:38:45;;;;;;;2.10;1.85;;;19.50;78.20;;;;;;4698003;28;10000583;-86
2023/05/18 07:41:11;;;;;;;1.60;1.50;;;19.50;77.80;;;;;;5029195;28;20053;-90
2023/05/18 07:43:36;;;;;;;1.67;1.58;;;19.50;78.00;;;;;;5032166;28;20511;-90
2023/05/18 07:46:02;;;;;;;1.70;1.58;;;19.50;78.00;;;;;;5054684;28;20062;-89
2023/05/18 07:48:27;;;;;;;1.70;1.60;;;19.50;77.80;;;;;;5050364;28;20548;-89
2023/05/18 07:50:53;;;;;;;2.10;1.77;;;19.40;77.60;;;;;;5052477;28;20065;-89
2023/05/18 07:53:19;;;;;;;1.63;1.52;;;19.40;77.50;;;;;;5054931;28;20029;-90
2023/05/18 07:55:44;;;;;;;1.67;1.50;;;19.40;77.30;;;;;;5048940;28;20503;-89
2023/05/18 07:58:10;;;;;;;1.65;1.55;;;19.50;77.20;;;;;;5053302;28;20048;-89
2023/05/18 08:00:36;;;;;;;1.98;1.52;;;19.50;76.90;;;;;;5044048;28;20045;-89
2023/05/18 08:03:01;;;;;;;1.67;1.58;;;19.50;76.70;;;;;;5058613;28;20040;-88
2023/05/18 08:05:27;;;;;;;1.50;1.40;;;19.50;76.70;;;;;;5053023;28;20141;-90
2023/05/18 08:07:53;;;;;;;1.92;1.60;;;19.50;76.70;;;;;;5054241;28;20049;-90
2023/05/18 08:10:18;;;;;;;2.75;2.03;;;19.50;76.70;;;;;;5045557;28;20045;-89
2023/05/18 08:12:44;;;;;;;1.83;1.73;;;19.50;76.60;;;;;;5059880;28;20045;-90
2023/05/18 08:15:10;;;;;;;1.83;1.63;;;19.50;76.50;;;;;;5056097;28;20033;-90
2023/05/18 08:17:36;;;;;;;1.63;1.52;;;19.50;76.40;;;;;;5032393;28;20033;-85
2023/05/18 08:20:07;;;;;;;2.38;2.17;;;19.50;76.30;;;;;;5052313;28;20527;-86
2023/05/18 08:22:32;;;;;;;1.70;1.60;;;19.50;76.60;;;;;;5052296;28;20040;-83
2023/05/18 08:24:59;;;;;;;2.10;2.00;;;19.60;76.50;;;;;;5034528;28;20067;-84
2023/05/18 08:27:25;;;;;;;2.20;2.00;;;19.60;76.50;;;;;;5051791;28;20118;-87
2023/05/18 08:29:50;;;;;;;1.58;1.48;;;19.60;76.60;;;;;;5035426;28;20128;-85
2023/05/18 08:32:16;;;;;;;1.95;1.80;;;19.70;76.60;;;;;;5030531;28;20113;-86
2023/05/18 08:34:42;;;;;;;2.42;1.95;;;19.60;76.50;;;;;;5037980;28;20045;-84
2023/05/18 08:37:08;;;;;;;2.08;1.45;;;19.70;76.50;;;;;;5048373;28;20123;-85
2023/05/18 08:39:35;;;;;;;1.60;1.50;;;19.70;76.80;;;;;;5044721;28;20219;-86
2023/05/18 08:42:02;;;;;;;2.08;1.98;;;19.70;76.70;;;;;;5028016;28;20513;-87
2023/05/18 08:44:48;;;;;;;2.22;2.00;;;19.80;76.70;;;;;;5035750;28;20168;-86
2023/05/18 08:47:15;;;;;;;1.85;1.73;;;19.70;76.50;;;;;;5049289;28;20043;-84
2023/05/18 08:49:41;;;;;;;2.65;2.03;;;19.80;76.60;;;;;;5037425;28;20129;-85
2023/05/18 08:52:07;;;;;;;1.60;1.50;;;19.80;76.70;;;;;;5059864;28;20049;-85
2023/05/18 08:54:32;;;;;;;1.70;1.60;;;19.80;76.60;;;;;;5047144;28;20588;-87
2023/05/18 08:56:58;;;;;;;2.03;1.83;;;19.80;76.70;;;;;;5035271;28;20446;-82
2023/05/18 08:59:28;;;;;;;1.80;1.70;;;19.80;76.60;;;;;;5032428;28;20514;-86
2023/05/18 09:01:53;;;;;;;2.08;1.73;;;19.80;76.60;;;;;;5043963;28;20525;-84
2023/05/18 09:04:20;;;;;;;1.60;1.50;;;19.80;76.70;;;;;;5051846;28;20052;-86
2023/05/18 09:06:46;;;;;;;1.83;1.73;;;19.80;76.70;;;;;;5045653;28;20041;-85
2023/05/18 09:09:12;;;;;;;1.73;1.63;;;19.80;76.60;;;;;;4685163;28;10000139;-88
2023/05/18 09:11:38;;;;;;;1.90;1.80;;;19.80;76.70;;;;;;5041153;28;20534;-85
2023/05/18 09:14:03;;;;;;;1.80;1.70;;;19.80;76.70;;;;;;5045593;28;20295;-85
2023/05/18 09:16:30;;;;;;;1.80;1.70;;;19.90;76.70;;;;;;5051922;28;20422;-86
2023/05/18 09:18:56;;;;;;;2.65;2.00;;;19.80;77.30;;;;;;5032856;28;20103;-85
2023/05/18 09:21:21;;;;;;;1.88;1.77;;;19.80;76.50;;;;;;5028578;28;20125;-85
2023/05/18 09:23:47;;;;;;;1.77;1.67;;;19.90;76.50;;;;;;5044786;28;20044;-83
2023/05/18 09:26:12;;;;;;;1.60;1.50;;;19.90;76.40;;;;;;5049612;28;20123;-84
2023/05/18 09:28:40;;;;;;;3.30;2.03;;;19.90;76.40;;;;;;5047227;28;20048;-84
2023/05/18 09:31:07;;;;;;;1.73;1.63;;;19.90;76.20;;;;;;5028184;28;20047;-84
2023/05/18 09:33:35;;;;;;;1.80;1.70;;;19.90;76.20;;;;;;5028123;28;20170;-84
2023/05/18 09:36:01;;;;;;;1.55;1.45;;;20.00;76.10;;;;;;5028240;28;20156;-81
2023/05/18 09:38:26;;;;;;;3.78;2.00;;;19.90;76.00;;;;;;5029227;28;20124;-84
2023/05/18 09:40:52;;;;;;;2.10;1.80;;;20.00;76.70;;;;;;5016463;28;20498;-85
2023/05/18 09:43:18;;;;;;;3.05;2.10;;;20.00;77.50;;;;;;5051296;28;20041;-86
2023/05/18 09:45:45;;;;;;;2.30;2.10;;;20.00;77.80;;;;;;5050996;28;20051;-85
2023/05/18 09:48:11;;;;;;;2.40;2.25;;;20.00;76.90;;;;;;5042545;28;20498;-82
2023/05/18 09:50:36;;;;;;;1.98;1.88;;;20.00;76.70;;;;;;5045536;28;20029;-80
2023/05/18 09:53:07;;;;;;;2.30;2.20;;;20.00;76.70;;;;;;5053798;28;20056;-81
2023/05/18 09:55:32;;;;;;;2.22;2.13;;;20.00;76.90;;;;;;5052165;28;20053;-82
2023/05/18 09:57:58;;;;;;;2.25;2.10;;;20.00;77.00;;;;;;5018813;28;20040;-80
2023/05/18 10:00:25;;;;;;;2.35;1.90;;;20.10;76.90;;;;;;5052496;28;20511;-79
2023/05/18 10:02:51;;;;;;;1.95;1.85;;;20.10;77.10;;;;;;5057655;28;20055;-84
2023/05/18 10:05:26;;;;;;;2.00;1.90;;;20.10;77.30;;;;;;5049291;28;20045;-82
2023/05/18 10:07:52;;;;;;;2.15;2.00;;;20.10;77.40;;;;;;5041842;28;20059;-85
2023/05/18 10:10:21;;;;;;;2.20;2.00;;;20.10;77.60;;;;;;5058649;28;20045;-79
2023/05/18 10:12:49;;;;;;;2.67;2.00;;;20.10;77.70;;;;;;5050804;28;20387;-80
2023/05/18 10:15:15;;;;;;;2.05;1.95;;;20.10;77.80;;;;;;5046755;28;20045;-79
2023/05/18 10:17:42;;;;;;;2.08;1.98;;;20.10;77.80;;;;;;5045505;28;20044;-79
2023/05/18 10:20:08;;;;;;;1.63;1.52;;;20.10;77.90;;;;;;5048319;28;20056;-79
2023/05/18 10:22:34;;;;;;;2.00;1.90;;;20.10;77.90;;;;;;5051474;28;20101;-79
2023/05/18 10:25:00;;;;;;;3.25;1.80;;;20.20;78.10;;;;;;5068318;28;20052;-78
2023/05/18 10:27:27;;;;;;;2.03;1.92;;;20.20;78.30;;;;;;5033954;28;20078;-78
2023/05/18 10:29:54;;;;;;;1.85;1.75;;;20.20;78.20;;;;;;5045670;28;20067;-78
2023/05/18 10:32:19;;;;;;;3.15;2.10;;;20.20;78.00;;;;;;5057373;28;20124;-78
2023/05/18 10:34:45;;;;;;;2.47;2.28;;;20.20;78.00;;;;;;5042888;28;20129;-78
2023/05/18 10:37:11;;;;;;;2.15;1.95;;;20.20;78.30;;;;;;5056738;28;20041;-78
2023/05/18 10:39:36;;;;;;;2.25;2.05;;;20.20;78.50;;;;;;5049182;28;20070;-78
2023/05/18 10:42:02;;;;;;;2.05;1.90;;;20.20;78.60;;;;;;5038012;28;20037;-78
2023/05/18 10:44:28;;;;;;;1.77;1.67;;;20.20;78.70;;;;;;5034320;28;20076;-78
2023/05/18 10:46:53;;;;;;;2.22;2.03;;;20.20;78.80;;;;;;5053090;28;20040;-78
2023/05/18 10:49:23;;;;;;;2.30;2.13;;;20.20;78.70;;;;;;5045953;28;20040;-78
2023/05/18 10:51:51;;;;;;;2.22;1.70;;;20.20;78.80;;;;;;5046271;28;20033;-78
2023/05/18 10:54:17;;;;;;;2.13;1.77;;;20.30;78.80;;;;;;5050755;28;20048;-78
2023/05/18 10:56:43;;;;;;;1.83;1.65;;;20.30;78.80;;;;;;5030057;28;20049;-79
2023/05/18 10:59:09;;;;;;;2.15;2.00;;;20.30;78.80;;;;;;5032293;28;20041;-78
2023/05/18 11:01:35;;;;;;;1.80;1.70;;;20.30;78.80;;;;;;5042522;28;20037;-78
2023/05/18 11:04:03;;;;;;;1.83;1.73;;;20.30;78.80;;;;;;5035959;28;20044;-78
2023/05/18 11:06:28;;;;;;;1.67;1.58;;;20.30;78.80;;;;;;5054010;28;20073;-78
2023/05/18 11:08:54;;;;;;;3.83;1.80;;;20.30;78.80;;;;;;5056300;28;20075;-78
2023/05/18 11:11:23;;;;;;;1.70;1.52;;;20.30;78.80;;;;;;5052508;28;20530;-78
2023/05/18 11:13:49;;;;;;;1.63;1.52;;;20.30;78.70;;;;;;5051787;28;20098;-75
2023/05/18 11:16:15;;;;;;;1.67;1.58;;;20.40;78.80;;;;;;5055242;28;20041;-75
2023/05/18 11:18:43;;;;;;;1.90;1.70;;;20.40;78.80;;;;;;5051633;28;20044;-75
2023/05/18 11:21:24;;;;;;;1.50;1.40;;;20.40;78.80;;;;;;5046648;28;20116;-76
2023/05/18 11:24:17;;;;;;;1.63;1.52;;;20.40;78.80;;;;;;5054197;28;20048;-76
2023/05/18 11:26:53;;;;;;;1.75;1.65;;;20.40;78.80;;;;;;5048260;28;20049;-75
2023/05/18 11:29:31;;;;;;;1.73;1.63;;;20.40;78.90;;;;;;5048993;28;20060;-75
2023/05/18 11:31:57;;;;;;;1.85;1.75;;;20.40;78.90;;;;;;5052169;28;20622;-76
2023/05/18 11:34:44;;;;;;;2.20;1.83;;;20.30;78.90;;;;;;5056393;28;20041;-76
2023/05/18 11:37:11;;;;;;;2.00;1.90;;;20.40;78.90;;;;;;5041037;28;20045;-75
2023/05/18 11:39:37;;;;;;;1.60;1.50;;;20.40;79.00;;;;;;5033453;28;20063;-75
2023/05/18 11:42:06;;;;;;;1.70;1.60;;;20.40;78.90;;;;;;5054496;28;20427;-76
2023/05/18 11:44:32;;;;;;;1.70;1.60;;;20.40;78.90;;;;;;5054254;28;20044;-76
2023/05/18 11:46:57;;;;;;;1.75;1.65;;;20.40;78.90;;;;;;5042358;28;20049;-75
2023/05/18 11:49:24;;;;;;;1.90;1.80;;;20.40;79.00;;;;;;5058205;28;20076;-75
2023/05/18 11:51:57;;;;;;;2.00;1.90;;;20.40;79.80;;;;;;5059150;28;20063;-76
2023/05/18 11:54:25;;;;;;;1.80;1.70;;;20.40;79.00;;;;;;5054038;28;20071;-76
2023/05/18 11:56:54;;;;;;;1.42;1.40;;;20.40;78.90;;;;;;5038442;28;20383;-76
2023/05/18 11:59:40;;;;;;;1.90;1.80;;;20.40;79.00;;;;;;5057137;28;20566;-76
2023/05/18 12:02:05;;;;;;;1.77;1.67;;;20.50;79.00;;;;;;5055061;28;20087;-76
2023/05/18 12:04:32;;;;;;;1.90;1.80;;;20.40;78.90;;;;;;5056258;28;20505;-76
2023/05/18 12:06:58;;;;;;;1.70;1.60;;;20.40;78.90;;;;;;5043122;28;20037;-76
2023/05/18 12:09:24;;;;;;;2.05;1.95;;;20.40;78.90;;;;;;5053221;28;20430;-75
2023/05/18 12:11:50;;;;;;;1.70;1.60;;;20.40;79.80;;;;;;5053726;28;20053;-76
2023/05/18 12:14:17;;;;;;;2.00;1.90;;;20.50;79.00;;;;;;5051280;28;20037;-76
2023/05/18 12:16:43;;;;;;;1.70;1.60;;;20.40;78.90;;;;;;5052073;28;20055;-75
2023/05/18 12:19:09;;;;;;;2.05;1.85;;;20.50;79.00;;;;;;5029900;28;20036;-76
2023/05/18 12:21:37;;;;;;;1.70;1.60;;;20.40;78.80;;;;;;5054444;28;20452;-76
2023/05/18 12:24:03;;;;;;;1.90;1.80;;;20.50;79.00;;;;;;5049129;28;20176;-76
2023/05/18 12:26:29;;;;;;;1.77;1.67;;;20.50;79.00;;;;;;5054844;28;20530;-76
2023/05/18 12:28:54;;;;;;;1.73;1.63;;;20.40;79.00;;;;;;5055744;28;20518;-76
2023/05/18 12:31:21;;;;;;;1.30;1.30;;;20.40;79.00;;;;;;5042027;28;20040;-76
2023/05/18 12:33:46;;;;;;;1.60;1.50;;;20.50;79.10;;;;;;5033648;28;20560;-76
2023/05/18 12:36:15;;;;;;;1.67;1.58;;;20.40;79.10;;;;;;5053313;28;20068;-76
2023/05/18 12:38:41;;;;;;;1.48;1.38;;;20.50;79.10;;;;;;5047684;28;20047;-76
2023/05/18 12:41:07;;;;;;;1.75;1.65;;;20.50;79.00;;;;;;5055850;28;20041;-76
2023/05/18 12:43:33;;;;;;;1.70;1.60;;;20.50;79.80;;;;;;5059078;28;20502;-76
2023/05/18 12:46:01;;;;;;;1.73;1.63;;;20.50;78.90;;;;;;5039863;28;20041;-76